createdAt,value
2023-02-09T00:00:56.787Z,0
2023-02-09T00:01:56.989Z,0
2023-02-09T00:02:56.681Z,0
2023-02-09T00:03:56.956Z,0
2023-02-09T00:04:56.392Z,0
2023-02-09T00:05:56.555Z,0
2023-02-09T00:06:56.579Z,0
2023-02-09T00:07:56.506Z,0
2023-02-09T00:08:56.594Z,0
2023-02-09T00:09:56.419Z,0
2023-02-09T00:10:56.788Z,0
2023-02-09T00:11:56.357Z,0
2023-02-09T00:12:56.343Z,0
2023-02-09T00:13:56.262Z,0
2023-02-09T00:14:56.254Z,0
2023-02-09T00:15:55.998Z,0
2023-02-09T00:16:56.698Z,0
2023-02-09T00:17:56.156Z,0
2023-02-09T00:18:56.070Z,0
2023-02-09T00:19:56.034Z,0
2023-02-09T00:20:56.423Z,0
2023-02-09T00:21:55.967Z,0
2023-02-09T00:22:55.992Z,0
2023-02-09T00:23:55.885Z,0
2023-02-09T00:24:57.655Z,0
2023-02-09T00:25:55.797Z,0
2023-02-09T00:26:55.757Z,0
2023-02-09T00:27:55.837Z,0
2023-02-09T00:28:55.720Z,0
2023-02-09T00:29:55.658Z,0
2023-02-09T00:30:56.349Z,0
2023-02-09T00:31:56.023Z,0
2023-02-09T00:32:55.550Z,0
2023-02-09T00:33:55.515Z,0
2023-02-09T00:34:55.474Z,0
2023-02-09T00:35:55.484Z,0
2023-02-09T00:36:55.427Z,0
2023-02-09T00:37:55.338Z,0
2023-02-09T00:38:55.316Z,0
2023-02-09T00:39:55.291Z,0
2023-02-09T00:40:55.581Z,0
2023-02-09T00:41:55.191Z,0
2023-02-09T00:42:55.395Z,0
2023-02-09T00:43:55.115Z,0
2023-02-09T00:44:55.091Z,0
2023-02-09T00:45:55.433Z,0
2023-02-09T00:46:55.019Z,0
2023-02-09T00:47:54.979Z,0
2023-02-09T00:48:54.949Z,0
2023-02-09T00:49:54.891Z,0
2023-02-09T00:50:55.098Z,0
2023-02-09T00:51:54.836Z,0
2023-02-09T00:52:54.776Z,0
2023-02-09T00:53:54.729Z,0
2023-02-09T00:54:54.746Z,0
2023-02-09T00:55:54.665Z,0
2023-02-09T00:56:54.690Z,0
2023-02-09T00:57:54.581Z,0
2023-02-09T00:58:54.528Z,0
2023-02-09T00:59:54.494Z,0
2023-02-09T01:00:55.272Z,0
2023-02-09T01:01:54.252Z,0
2023-02-09T01:02:54.157Z,0
2023-02-09T01:03:54.354Z,0
2023-02-09T01:04:54.723Z,0
2023-02-09T01:05:54.301Z,0
2023-02-09T01:06:54.240Z,0
2023-02-09T01:07:54.202Z,0
2023-02-09T01:08:54.180Z,0
2023-02-09T01:09:54.153Z,0
2023-02-09T01:10:54.730Z,0
2023-02-09T01:11:54.053Z,0
2023-02-09T01:12:54.107Z,0
2023-02-09T01:13:53.963Z,0
2023-02-09T01:14:53.907Z,0
2023-02-09T01:15:53.870Z,0
2023-02-09T01:16:54.310Z,0
2023-02-09T01:17:53.564Z,0
2023-02-09T01:18:53.785Z,0
2023-02-09T01:19:53.767Z,0
2023-02-09T01:20:54.462Z,0
2023-02-09T01:21:53.650Z,0
2023-02-09T01:22:53.368Z,0
2023-02-09T01:23:53.596Z,0
2023-02-09T01:24:53.548Z,0
2023-02-09T01:25:53.484Z,0
2023-02-09T01:26:53.473Z,0
2023-02-09T01:27:53.541Z,0
2023-02-09T01:28:53.418Z,0
2023-02-09T01:29:53.351Z,0
2023-02-09T01:30:55.231Z,0
2023-02-09T01:31:54.082Z,0
2023-02-09T01:32:53.245Z,0
2023-02-09T01:33:53.172Z,0
2023-02-09T01:34:53.213Z,0
2023-02-09T01:35:53.110Z,0
2023-02-09T01:36:53.141Z,0
2023-02-09T01:37:53.037Z,0
2023-02-09T01:38:53.115Z,0
2023-02-09T01:39:53.021Z,0
2023-02-09T01:40:53.680Z,0
2023-02-09T01:41:52.880Z,0
2023-02-09T01:42:52.871Z,0
2023-02-09T01:43:52.818Z,0
2023-02-09T01:44:52.828Z,0
2023-02-09T01:45:52.747Z,0
2023-02-09T01:46:52.456Z,0
2023-02-09T01:47:52.652Z,0
2023-02-09T01:48:52.619Z,0
2023-02-09T01:49:52.599Z,0
2023-02-09T01:50:53.281Z,0
2023-02-09T01:51:52.492Z,0
2023-02-09T01:52:52.437Z,0
2023-02-09T01:53:52.397Z,0
2023-02-09T01:54:52.389Z,0
2023-02-09T01:55:52.326Z,0
2023-02-09T01:56:52.335Z,0
2023-02-09T01:57:52.015Z,0
2023-02-09T01:58:52.248Z,0
2023-02-09T01:59:52.181Z,0
2023-02-09T02:00:53.077Z,0
2023-02-09T02:01:52.470Z,0
2023-02-09T02:02:52.524Z,0
2023-02-09T02:03:52.036Z,0
2023-02-09T02:04:51.999Z,0
2023-02-09T02:05:51.935Z,0
2023-02-09T02:06:51.905Z,0
2023-02-09T02:07:51.857Z,0
2023-02-09T02:08:51.822Z,0
2023-02-09T02:09:51.544Z,0
2023-02-09T02:10:52.727Z,0
2023-02-09T02:11:51.723Z,0
2023-02-09T02:12:51.712Z,0
2023-02-09T02:13:51.660Z,0
2023-02-09T02:14:51.645Z,0
2023-02-09T02:15:51.888Z,0
2023-02-09T02:16:51.565Z,0
2023-02-09T02:17:51.486Z,0
2023-02-09T02:18:51.421Z,0
2023-02-09T02:19:51.417Z,0
2023-02-09T02:20:52.234Z,0
2023-02-09T02:21:51.316Z,0
2023-02-09T02:22:51.275Z,0
2023-02-09T02:23:51.242Z,0
2023-02-09T02:24:51.227Z,0
2023-02-09T02:25:51.150Z,0
2023-02-09T02:26:51.160Z,0
2023-02-09T02:27:51.100Z,0
2023-02-09T02:28:51.087Z,0
2023-02-09T02:29:51.000Z,0
2023-02-09T02:30:52.869Z,0
2023-02-09T02:31:51.451Z,0
2023-02-09T02:32:50.995Z,0
2023-02-09T02:33:50.857Z,0
2023-02-09T02:34:50.841Z,0
2023-02-09T02:35:50.801Z,0
2023-02-09T02:36:50.800Z,0
2023-02-09T02:37:50.472Z,0
2023-02-09T02:38:50.647Z,0
2023-02-09T02:39:50.381Z,0
2023-02-09T02:40:51.477Z,0
2023-02-09T02:41:50.567Z,0
2023-02-09T02:42:50.526Z,0
2023-02-09T02:43:50.483Z,0
2023-02-09T02:44:50.461Z,0
2023-02-09T02:45:50.429Z,0
2023-02-09T02:46:50.707Z,0
2023-02-09T02:47:50.318Z,0
2023-02-09T02:48:50.327Z,0
2023-02-09T02:49:50.261Z,0
2023-02-09T02:50:51.519Z,0
2023-02-09T02:51:50.164Z,0
2023-02-09T02:52:50.145Z,0
2023-02-09T02:53:50.082Z,0
2023-02-09T02:54:50.042Z,0
2023-02-09T02:55:50.007Z,0
2023-02-09T02:56:49.969Z,0
2023-02-09T02:57:49.751Z,0
2023-02-09T02:58:49.684Z,0
2023-02-09T02:59:49.851Z,0
2023-02-09T03:00:50.813Z,0
2023-02-09T03:01:50.091Z,0
2023-02-09T03:02:49.836Z,0
2023-02-09T03:03:49.719Z,0
2023-02-09T03:04:49.739Z,0
2023-02-09T03:05:49.886Z,0
2023-02-09T03:06:49.613Z,0
2023-02-09T03:07:49.329Z,0
2023-02-09T03:08:49.547Z,0
2023-02-09T03:09:49.486Z,0
2023-02-09T03:10:50.456Z,0
2023-02-09T03:11:49.413Z,0
2023-02-09T03:12:49.118Z,0
2023-02-09T03:13:49.346Z,0
2023-02-09T03:14:49.286Z,0
2023-02-09T03:15:49.578Z,0
2023-02-09T03:16:49.264Z,0
2023-02-09T03:17:49.212Z,0
2023-02-09T03:18:49.146Z,0
2023-02-09T03:19:49.121Z,0
2023-02-09T03:20:49.925Z,0
2023-02-09T03:21:48.766Z,0
2023-02-09T03:22:48.983Z,0
2023-02-09T03:23:48.962Z,0
2023-02-09T03:24:48.932Z,0
2023-02-09T03:25:48.867Z,0
2023-02-09T03:26:48.825Z,0
2023-02-09T03:27:48.835Z,0
2023-02-09T03:28:48.770Z,0
2023-02-09T03:29:48.503Z,0
2023-02-09T03:30:49.909Z,0
2023-02-09T03:31:48.919Z,0
2023-02-09T03:32:48.635Z,0
2023-02-09T03:33:48.550Z,0
2023-02-09T03:34:48.607Z,0
2023-02-09T03:35:48.468Z,0
2023-02-09T03:36:48.476Z,0
2023-02-09T03:37:48.439Z,0
2023-02-09T03:38:48.353Z,0
2023-02-09T03:39:48.337Z,0
2023-02-09T03:40:49.156Z,0
2023-02-09T03:41:48.273Z,0
2023-02-09T03:42:48.216Z,0
2023-02-09T03:43:48.161Z,0
2023-02-09T03:44:48.124Z,0
2023-02-09T03:45:48.094Z,0
2023-02-09T03:46:48.453Z,0
2023-02-09T03:47:48.013Z,0
2023-02-09T03:48:47.993Z,0
2023-02-09T03:49:47.971Z,0
2023-02-09T03:50:48.883Z,0
2023-02-09T03:51:47.910Z,0
2023-02-09T03:52:47.878Z,0
2023-02-09T03:53:47.814Z,0
2023-02-09T03:54:47.785Z,0
2023-02-09T03:55:47.699Z,0
2023-02-09T03:56:47.839Z,0
2023-02-09T03:57:47.694Z,0
2023-02-09T03:58:47.614Z,0
2023-02-09T03:59:47.573Z,0
2023-02-09T04:00:48.528Z,0
2023-02-09T04:01:47.496Z,0
2023-02-09T04:02:47.822Z,0
2023-02-09T04:03:47.402Z,0
2023-02-09T04:04:47.287Z,0
2023-02-09T04:05:47.070Z,0
2023-02-09T04:06:47.303Z,0
2023-02-09T04:07:47.225Z,0
2023-02-09T04:08:47.263Z,0
2023-02-09T04:09:47.163Z,0
2023-02-09T04:10:47.786Z,0
2023-02-09T04:11:47.169Z,0
2023-02-09T04:12:47.136Z,0
2023-02-09T04:13:47.006Z,0
2023-02-09T04:14:46.984Z,0
2023-02-09T04:15:46.940Z,0
2023-02-09T04:16:47.116Z,0
2023-02-09T04:17:47.483Z,0
2023-02-09T04:18:46.819Z,0
2023-02-09T04:19:46.792Z,0
2023-02-09T04:20:47.495Z,0
2023-02-09T04:21:46.719Z,0
2023-02-09T04:22:46.676Z,0
2023-02-09T04:23:46.659Z,0
2023-02-09T04:24:46.631Z,0
2023-02-09T04:25:46.552Z,0
2023-02-09T04:26:46.491Z,0
2023-02-09T04:27:46.510Z,0
2023-02-09T04:28:46.458Z,0
2023-02-09T04:29:46.401Z,0
2023-02-09T04:30:47.155Z,0
2023-02-09T04:31:46.710Z,0
2023-02-09T04:32:46.289Z,0
2023-02-09T04:33:46.300Z,0
2023-02-09T04:34:46.228Z,0
2023-02-09T04:35:46.162Z,0
2023-02-09T04:36:46.139Z,0
2023-02-09T04:37:46.081Z,0
2023-02-09T04:38:46.085Z,0
2023-02-09T04:39:46.018Z,0
2023-02-09T04:40:46.667Z,0
2023-02-09T04:41:45.932Z,0
2023-02-09T04:42:45.882Z,0
2023-02-09T04:43:45.615Z,0
2023-02-09T04:44:45.821Z,0
2023-02-09T04:45:45.826Z,0
2023-02-09T04:46:48.027Z,0
2023-02-09T04:47:45.711Z,0
2023-02-09T04:48:45.689Z,0
2023-02-09T04:49:45.621Z,0
2023-02-09T04:50:46.487Z,0
2023-02-09T04:51:45.552Z,0
2023-02-09T04:52:45.519Z,0
2023-02-09T04:53:45.514Z,0
2023-02-09T04:54:45.444Z,0
2023-02-09T04:55:45.393Z,0
2023-02-09T04:56:47.177Z,0
2023-02-09T04:57:45.314Z,0
2023-02-09T04:58:45.303Z,0
2023-02-09T04:59:45.231Z,0
2023-02-09T05:00:45.842Z,0
2023-02-09T05:01:45.233Z,0
2023-02-09T05:02:45.107Z,0
2023-02-09T05:03:45.564Z,0
2023-02-09T05:04:45.034Z,0
2023-02-09T05:05:45.020Z,0
2023-02-09T05:06:44.973Z,0
2023-02-09T05:07:44.922Z,0
2023-02-09T05:08:44.927Z,0
2023-02-09T05:09:44.845Z,0
2023-02-09T05:10:45.111Z,0
2023-02-09T05:11:44.760Z,0
2023-02-09T05:12:44.768Z,0
2023-02-09T05:13:44.721Z,0
2023-02-09T05:14:44.404Z,0
2023-02-09T05:15:44.612Z,0
2023-02-09T05:16:46.781Z,0
2023-02-09T05:17:44.296Z,0
2023-02-09T05:18:44.509Z,0
2023-02-09T05:19:44.457Z,0
2023-02-09T05:20:44.741Z,0
2023-02-09T05:21:44.382Z,0
2023-02-09T05:22:44.346Z,0
2023-02-09T05:23:44.317Z,0
2023-02-09T05:24:44.304Z,0
2023-02-09T05:25:44.245Z,0
2023-02-09T05:26:44.290Z,0
2023-02-09T05:27:44.150Z,0
2023-02-09T05:28:44.212Z,0
2023-02-09T05:29:44.099Z,0
2023-02-09T05:30:44.878Z,0
2023-02-09T05:31:44.673Z,0
2023-02-09T05:32:44.073Z,0
2023-02-09T05:33:44.019Z,0
2023-02-09T05:34:43.869Z,0
2023-02-09T05:35:43.843Z,0
2023-02-09T05:36:43.571Z,0
2023-02-09T05:37:43.763Z,0
2023-02-09T05:38:43.755Z,0
2023-02-09T05:39:43.665Z,0
2023-02-09T05:40:45.108Z,0
2023-02-09T05:41:43.619Z,0
2023-02-09T05:42:43.734Z,0
2023-02-09T05:43:43.527Z,0
2023-02-09T05:44:43.556Z,0
2023-02-09T05:45:43.832Z,0
2023-02-09T05:46:43.441Z,0
2023-02-09T05:47:43.381Z,0
2023-02-09T05:48:43.366Z,0
2023-02-09T05:49:43.288Z,0
2023-02-09T05:50:43.086Z,0
2023-02-09T05:51:43.202Z,0
2023-02-09T05:52:43.201Z,0
2023-02-09T05:53:43.130Z,0
2023-02-09T05:54:43.128Z,0
2023-02-09T05:55:43.082Z,0
2023-02-09T05:56:43.045Z,0
2023-02-09T05:57:42.975Z,0
2023-02-09T05:58:42.954Z,0
2023-02-09T05:59:42.956Z,0
2023-02-09T06:00:43.247Z,0
2023-02-09T06:01:42.829Z,0
2023-02-09T06:02:43.194Z,0
2023-02-09T06:03:43.058Z,0
2023-02-09T06:04:42.756Z,0
2023-02-09T06:05:42.728Z,0
2023-02-09T06:06:42.636Z,0
2023-02-09T06:07:42.600Z,0
2023-02-09T06:08:42.554Z,0
2023-02-09T06:09:42.523Z,0
2023-02-09T06:10:42.477Z,0
2023-02-09T06:11:42.564Z,0
2023-02-09T06:12:43.812Z,0
2023-02-09T06:13:41.924Z,0
2023-02-09T06:14:42.361Z,0
2023-02-09T06:15:42.513Z,0
2023-02-09T06:16:42.289Z,0
2023-02-09T06:17:42.205Z,0
2023-02-09T06:18:42.159Z,0
2023-02-09T06:19:42.138Z,0
2023-02-09T06:20:42.136Z,0
2023-02-09T06:21:42.055Z,0
2023-02-09T06:22:42.021Z,0
2023-02-09T06:23:44.560Z,0
2023-02-09T06:24:41.948Z,0
2023-02-09T06:25:41.902Z,0
2023-02-09T06:26:41.846Z,0
2023-02-09T06:27:41.835Z,0
2023-02-09T06:28:41.925Z,0
2023-02-09T06:29:41.726Z,0
2023-02-09T06:30:42.912Z,0
2023-02-09T06:31:42.502Z,0
2023-02-09T06:32:41.691Z,0
2023-02-09T06:33:41.702Z,0
2023-02-09T06:34:41.583Z,0
2023-02-09T06:35:41.521Z,0
2023-02-09T06:36:41.544Z,0
2023-02-09T06:37:41.451Z,0
2023-02-09T06:38:41.442Z,0
2023-02-09T06:39:41.419Z,0
2023-02-09T06:40:41.307Z,5
2023-02-09T06:41:41.556Z,5
2023-02-09T06:42:41.245Z,5
2023-02-09T06:43:41.212Z,5
2023-02-09T06:44:41.182Z,5
2023-02-09T06:45:41.140Z,5
2023-02-09T06:46:41.395Z,5
2023-02-09T06:47:41.323Z,10
2023-02-09T06:48:41.523Z,10
2023-02-09T06:49:41.338Z,10
2023-02-09T06:50:41.503Z,10
2023-02-09T06:51:41.825Z,10
2023-02-09T06:52:40.880Z,10
2023-02-09T06:53:40.800Z,15
2023-02-09T06:54:40.787Z,15
2023-02-09T06:55:40.737Z,15
2023-02-09T06:56:40.679Z,15
2023-02-09T06:57:40.639Z,15
2023-02-09T06:58:40.624Z,20
2023-02-09T06:59:40.908Z,20
2023-02-09T07:00:40.785Z,20
2023-02-09T07:01:41.336Z,25
2023-02-09T07:02:40.855Z,25
2023-02-09T07:03:40.544Z,25
2023-02-09T07:04:40.495Z,30
2023-02-09T07:05:40.395Z,30
2023-02-09T07:06:40.314Z,35
2023-02-09T07:07:40.513Z,35
2023-02-09T07:08:40.277Z,40
2023-02-09T07:09:39.953Z,40
2023-02-09T07:10:40.225Z,45
2023-02-09T07:11:40.134Z,45
2023-02-09T07:12:42.886Z,50
2023-02-09T07:13:40.100Z,50
2023-02-09T07:14:39.992Z,50
2023-02-09T07:15:40.114Z,55
2023-02-09T07:16:40.016Z,55
2023-02-09T07:17:39.923Z,60
2023-02-09T07:18:39.870Z,60
2023-02-09T07:19:39.805Z,65
2023-02-09T07:20:39.855Z,65
2023-02-09T07:21:39.595Z,70
2023-02-09T07:22:39.732Z,70
2023-02-09T07:23:39.673Z,75
2023-02-09T07:24:39.403Z,75
2023-02-09T07:25:39.571Z,80
2023-02-09T07:26:39.554Z,80
2023-02-09T07:27:39.511Z,85
2023-02-09T07:28:39.905Z,90
2023-02-09T07:29:39.419Z,90
2023-02-09T07:30:39.855Z,90
2023-02-09T07:31:39.857Z,95
2023-02-09T07:32:39.467Z,95
2023-02-09T07:33:39.386Z,95
2023-02-09T07:34:39.268Z,100
2023-02-09T07:35:39.202Z,100
2023-02-09T07:36:39.778Z,105
2023-02-09T07:37:39.186Z,110
2023-02-09T07:38:39.542Z,110
2023-02-09T07:39:39.726Z,115
2023-02-09T07:40:39.114Z,115
2023-02-09T07:41:38.992Z,120
2023-02-09T07:42:38.928Z,120
2023-02-09T07:43:38.922Z,120
2023-02-09T07:44:38.882Z,120
2023-02-09T07:45:38.938Z,120
2023-02-09T07:46:39.200Z,125
2023-02-09T07:47:38.753Z,125
2023-02-09T07:48:38.773Z,125
2023-02-09T07:49:38.679Z,130
2023-02-09T07:50:39.838Z,130
2023-02-09T07:51:40.507Z,130
2023-02-09T07:52:38.614Z,135
2023-02-09T07:53:38.632Z,135
2023-02-09T07:54:38.475Z,140
2023-02-09T07:55:38.438Z,140
2023-02-09T07:56:38.447Z,145
2023-02-09T07:57:38.672Z,145
2023-02-09T07:58:38.309Z,150
2023-02-09T07:59:38.286Z,150
2023-02-09T08:00:38.240Z,150
2023-02-09T08:01:38.214Z,155
2023-02-09T08:02:38.186Z,155
2023-02-09T08:03:38.197Z,155
2023-02-09T08:04:38.175Z,160
2023-02-09T08:05:38.283Z,160
2023-02-09T08:06:50.819Z,105
2023-02-09T08:07:37.732Z,165
2023-02-09T08:08:38.056Z,165
2023-02-09T08:09:37.932Z,165
2023-02-09T08:10:37.889Z,165
2023-02-09T08:11:37.890Z,170
2023-02-09T08:12:37.646Z,170
2023-02-09T08:13:37.792Z,175
2023-02-09T08:14:37.248Z,175
2023-02-09T08:15:38.920Z,175
2023-02-09T08:16:38.064Z,180
2023-02-09T08:17:37.415Z,180
2023-02-09T08:18:37.587Z,180
2023-02-09T08:19:37.596Z,180
2023-02-09T08:20:37.546Z,180
2023-02-09T08:21:37.516Z,180
2023-02-09T08:22:37.475Z,180
2023-02-09T08:23:39.521Z,185
2023-02-09T08:24:37.409Z,185
2023-02-09T08:25:37.379Z,185
2023-02-09T08:26:37.402Z,185
2023-02-09T08:27:37.270Z,190
2023-02-09T08:28:53.110Z,190
2023-02-09T08:29:37.189Z,190
2023-02-09T08:30:37.134Z,190
2023-02-09T08:31:38.048Z,195
2023-02-09T08:32:37.120Z,195
2023-02-09T08:33:37.032Z,195
2023-02-09T08:34:36.982Z,195
2023-02-09T08:35:39.765Z,200
2023-02-09T08:36:37.046Z,200
2023-02-09T08:37:36.920Z,200
2023-02-09T08:38:36.634Z,200
2023-02-09T08:39:36.870Z,205
2023-02-09T08:40:36.862Z,205
2023-02-09T08:41:36.268Z,205
2023-02-09T08:42:36.719Z,210
2023-02-09T08:43:36.710Z,210
2023-02-09T08:44:36.683Z,210
2023-02-09T08:45:37.422Z,135
2023-02-09T08:46:37.247Z,150
2023-02-09T08:47:36.541Z,150
2023-02-09T08:48:38.103Z,150
2023-02-09T08:49:36.454Z,150
2023-02-09T08:50:36.418Z,150
2023-02-09T08:51:36.435Z,150
2023-02-09T08:52:36.357Z,150
2023-02-09T08:53:36.312Z,165
2023-02-09T08:54:35.835Z,150
2023-02-09T08:55:36.236Z,150
2023-02-09T08:56:36.304Z,170
2023-02-09T08:57:52.242Z,140
2023-02-09T08:58:36.152Z,230
2023-02-09T08:59:35.968Z,230
2023-02-09T09:00:35.609Z,230
2023-02-09T09:01:36.449Z,230
2023-02-09T09:02:36.231Z,230
2023-02-09T09:03:36.528Z,235
2023-02-09T09:04:35.983Z,235
2023-02-09T09:05:38.903Z,235
2023-02-09T09:06:35.868Z,235
2023-02-09T09:07:35.734Z,235
2023-02-09T09:08:35.787Z,235
2023-02-09T09:09:35.737Z,235
2023-02-09T09:10:35.754Z,235
2023-02-09T09:11:35.247Z,235
2023-02-09T09:12:35.704Z,235
2023-02-09T09:13:35.371Z,230
2023-02-09T09:14:35.308Z,230
2023-02-09T09:15:35.546Z,230
2023-02-09T09:16:35.789Z,235
2023-02-09T09:17:35.456Z,230
2023-02-09T09:18:35.436Z,230
2023-02-09T09:19:35.406Z,235
2023-02-09T09:20:35.132Z,235
2023-02-09T09:21:35.087Z,235
2023-02-09T09:22:35.082Z,235
2023-02-09T09:23:35.288Z,235
2023-02-09T09:24:35.203Z,235
2023-02-09T09:25:35.171Z,235
2023-02-09T09:26:35.198Z,235
2023-02-09T09:27:36.309Z,235
2023-02-09T09:28:35.469Z,235
2023-02-09T09:29:35.028Z,240
2023-02-09T09:30:34.998Z,240
2023-02-09T09:31:35.864Z,250
2023-02-09T09:32:35.922Z,245
2023-02-09T09:33:34.897Z,245
2023-02-09T09:34:34.880Z,245
2023-02-09T09:35:34.851Z,250
2023-02-09T09:36:34.801Z,250
2023-02-09T09:37:34.705Z,245
2023-02-09T09:38:34.731Z,250
2023-02-09T09:39:34.739Z,250
2023-02-09T09:40:34.678Z,255
2023-02-09T09:41:34.746Z,250
2023-02-09T09:42:34.607Z,250
2023-02-09T09:43:34.566Z,250
2023-02-09T09:44:34.642Z,250
2023-02-09T09:45:34.228Z,255
2023-02-09T09:46:34.910Z,255
2023-02-09T09:47:34.388Z,255
2023-02-09T09:48:34.378Z,255
2023-02-09T09:49:34.322Z,255
2023-02-09T09:50:35.940Z,260
2023-02-09T09:51:34.248Z,260
2023-02-09T09:52:34.385Z,260
2023-02-09T09:53:34.183Z,260
2023-02-09T09:54:34.169Z,260
2023-02-09T09:55:34.151Z,260
2023-02-09T09:56:36.703Z,260
2023-02-09T09:57:34.107Z,260
2023-02-09T09:58:34.043Z,260
2023-02-09T09:59:33.996Z,265
2023-02-09T10:00:33.984Z,265
2023-02-09T10:01:34.570Z,265
2023-02-09T10:02:33.903Z,265
2023-02-09T10:03:33.858Z,270
2023-02-09T10:04:34.134Z,270
2023-02-09T10:05:33.806Z,275
2023-02-09T10:06:34.745Z,280
2023-02-09T10:07:33.712Z,280
2023-02-09T10:08:33.438Z,280
2023-02-09T10:09:33.409Z,280
2023-02-09T10:10:33.590Z,285
2023-02-09T10:11:33.630Z,285
2023-02-09T10:12:33.557Z,285
2023-02-09T10:13:33.498Z,285
2023-02-09T10:14:33.477Z,285
2023-02-09T10:15:33.511Z,290
2023-02-09T10:16:33.591Z,290
2023-02-09T10:17:33.383Z,290
2023-02-09T10:18:33.313Z,290
2023-02-09T10:19:33.058Z,290
2023-02-09T10:20:33.054Z,290
2023-02-09T10:21:33.254Z,290
2023-02-09T10:22:33.181Z,290
2023-02-09T10:23:33.180Z,290
2023-02-09T10:24:33.129Z,285
2023-02-09T10:25:33.091Z,285
2023-02-09T10:26:33.080Z,290
2023-02-09T10:27:33.042Z,285
2023-02-09T10:28:33.534Z,285
2023-02-09T10:29:32.973Z,290
2023-02-09T10:30:33.186Z,295
2023-02-09T10:31:33.897Z,300
2023-02-09T10:32:32.925Z,300
2023-02-09T10:33:32.802Z,300
2023-02-09T10:34:32.815Z,305
2023-02-09T10:35:32.780Z,305
2023-02-09T10:36:32.756Z,305
2023-02-09T10:37:32.464Z,300
2023-02-09T10:38:35.418Z,300
2023-02-09T10:39:32.648Z,300
2023-02-09T10:40:32.612Z,305
2023-02-09T10:41:32.061Z,305
2023-02-09T10:42:32.281Z,310
2023-02-09T10:43:32.517Z,315
2023-02-09T10:44:32.457Z,315
2023-02-09T10:45:32.405Z,315
2023-02-09T10:46:32.815Z,315
2023-02-09T10:47:32.146Z,315
2023-02-09T10:48:32.366Z,315
2023-02-09T10:49:32.292Z,310
2023-02-09T10:50:32.218Z,310
2023-02-09T10:51:32.094Z,310
2023-02-09T10:52:31.937Z,310
2023-02-09T10:53:32.133Z,310
2023-02-09T10:54:31.861Z,310
2023-02-09T10:55:31.816Z,315
2023-02-09T10:56:31.770Z,315
2023-02-09T10:57:32.020Z,315
2023-02-09T10:58:31.967Z,310
2023-02-09T10:59:32.061Z,310
2023-02-09T11:00:31.935Z,310
2023-02-09T11:01:32.287Z,315
2023-02-09T11:02:31.882Z,315
2023-02-09T11:03:31.847Z,315
2023-02-09T11:04:32.090Z,310
2023-02-09T11:05:31.756Z,310
2023-02-09T11:06:31.726Z,310
2023-02-09T11:07:34.065Z,310
2023-02-09T11:08:31.674Z,305
2023-02-09T11:09:31.593Z,300
2023-02-09T11:10:31.339Z,300
2023-02-09T11:11:31.569Z,300
2023-02-09T11:12:31.529Z,300
2023-02-09T11:13:34.449Z,300
2023-02-09T11:14:31.433Z,295
2023-02-09T11:15:31.290Z,295
2023-02-09T11:16:31.883Z,295
2023-02-09T11:17:31.107Z,300
2023-02-09T11:18:32.538Z,300
2023-02-09T11:19:30.833Z,300
2023-02-09T11:20:31.378Z,300
2023-02-09T11:21:31.260Z,305
2023-02-09T11:22:35.827Z,305
2023-02-09T11:23:31.164Z,305
2023-02-09T11:24:33.371Z,300
2023-02-09T11:25:31.083Z,300
2023-02-09T11:26:31.078Z,295
2023-02-09T11:27:33.169Z,295
2023-02-09T11:28:31.519Z,295
2023-02-09T11:29:30.956Z,295
2023-02-09T11:30:30.934Z,300
2023-02-09T11:31:31.641Z,305
2023-02-09T11:32:30.850Z,310
2023-02-09T11:33:30.568Z,315
2023-02-09T11:34:33.405Z,320
2023-02-09T11:35:30.759Z,320
2023-02-09T11:36:30.790Z,320
2023-02-09T11:37:30.748Z,325
2023-02-09T11:38:30.660Z,330
2023-02-09T11:39:30.631Z,330
2023-02-09T11:40:30.373Z,330
2023-02-09T11:41:30.542Z,330
2023-02-09T11:42:30.288Z,325
2023-02-09T11:43:30.478Z,325
2023-02-09T11:44:30.452Z,320
2023-02-09T11:45:30.405Z,325
2023-02-09T11:46:30.664Z,325
2023-02-09T11:47:30.587Z,330
2023-02-09T11:48:30.088Z,330
2023-02-09T11:49:30.293Z,330
2023-02-09T11:50:30.268Z,330
2023-02-09T11:51:31.812Z,330
2023-02-09T11:52:30.242Z,330
2023-02-09T11:53:30.171Z,325
2023-02-09T11:54:30.156Z,330
2023-02-09T11:55:30.082Z,330
2023-02-09T11:56:30.114Z,330
2023-02-09T11:57:29.773Z,325
2023-02-09T11:58:30.007Z,325
2023-02-09T11:59:29.972Z,330
2023-02-09T12:00:29.922Z,335
2023-02-09T12:01:30.520Z,330
2023-02-09T12:02:33.175Z,330
2023-02-09T12:03:29.826Z,330
2023-02-09T12:04:29.826Z,330
2023-02-09T12:05:29.591Z,335
2023-02-09T12:06:30.338Z,330
2023-02-09T12:07:31.290Z,330
2023-02-09T12:08:29.705Z,335
2023-02-09T12:09:29.406Z,340
2023-02-09T12:10:29.605Z,345
2023-02-09T12:11:29.640Z,345
2023-02-09T12:12:29.568Z,345
2023-02-09T12:13:29.519Z,345
2023-02-09T12:14:29.486Z,350
2023-02-09T12:15:29.500Z,350
2023-02-09T12:16:29.855Z,350
2023-02-09T12:17:29.383Z,350
2023-02-09T12:18:29.396Z,345
2023-02-09T12:19:29.322Z,350
2023-02-09T12:20:29.511Z,350
2023-02-09T12:21:29.266Z,355
2023-02-09T12:22:29.272Z,360
2023-02-09T12:23:29.253Z,360
2023-02-09T12:24:29.266Z,370
2023-02-09T12:25:29.129Z,365
2023-02-09T12:26:29.086Z,365
2023-02-09T12:27:29.056Z,365
2023-02-09T12:28:29.489Z,365
2023-02-09T12:29:29.020Z,365
2023-02-09T12:30:29.012Z,365
2023-02-09T12:31:29.906Z,365
2023-02-09T12:32:29.220Z,355
2023-02-09T12:33:29.028Z,355
2023-02-09T12:34:28.886Z,350
2023-02-09T12:35:28.799Z,350
2023-02-09T12:36:28.859Z,345
2023-02-09T12:37:34.471Z,340
2023-02-09T12:38:28.472Z,335
2023-02-09T12:39:33.454Z,325
2023-02-09T12:40:28.687Z,325
2023-02-09T12:41:28.366Z,325
2023-02-09T12:42:28.571Z,320
2023-02-09T12:43:28.298Z,320
2023-02-09T12:44:28.298Z,320
2023-02-09T12:45:28.455Z,320
2023-02-09T12:46:29.022Z,325
2023-02-09T12:47:28.200Z,325
2023-02-09T12:48:28.184Z,330
2023-02-09T12:49:28.133Z,325
2023-02-09T12:50:28.348Z,325
2023-02-09T12:51:28.280Z,325
2023-02-09T12:52:28.359Z,320
2023-02-09T12:53:28.055Z,320
2023-02-09T12:54:28.212Z,315
2023-02-09T12:55:28.237Z,315
2023-02-09T12:56:28.138Z,315
2023-02-09T12:57:28.104Z,315
2023-02-09T12:58:28.074Z,315
2023-02-09T12:59:28.247Z,315
2023-02-09T13:00:28.194Z,315
2023-02-09T13:01:28.047Z,320
2023-02-09T13:02:27.845Z,320
2023-02-09T13:03:27.792Z,325
2023-02-09T13:04:28.082Z,330
2023-02-09T13:05:27.901Z,325
2023-02-09T13:06:27.591Z,325
2023-02-09T13:07:27.800Z,330
2023-02-09T13:08:27.526Z,330
2023-02-09T13:09:27.746Z,335
2023-02-09T13:10:27.452Z,335
2023-02-09T13:11:27.709Z,345
2023-02-09T13:12:27.409Z,345
2023-02-09T13:13:27.748Z,345
2023-02-09T13:14:27.340Z,350
2023-02-09T13:15:27.284Z,350
2023-02-09T13:16:27.656Z,345
2023-02-09T13:17:27.465Z,345
2023-02-09T13:18:27.428Z,350
2023-02-09T13:19:33.787Z,350
2023-02-09T13:20:27.384Z,350
2023-02-09T13:21:29.475Z,350
2023-02-09T13:22:27.337Z,345
2023-02-09T13:23:27.084Z,345
2023-02-09T13:24:27.308Z,345
2023-02-09T13:25:27.254Z,345
2023-02-09T13:26:27.223Z,345
2023-02-09T13:27:27.256Z,345
2023-02-09T13:28:27.736Z,345
2023-02-09T13:29:30.805Z,340
2023-02-09T13:30:26.807Z,340
2023-02-09T13:31:27.416Z,340
2023-02-09T13:32:27.055Z,335
2023-02-09T13:33:26.991Z,330
2023-02-09T13:34:26.948Z,330
2023-02-09T13:35:26.667Z,330
2023-02-09T13:36:34.220Z,335
2023-02-09T13:37:26.651Z,335
2023-02-09T13:38:28.493Z,325
2023-02-09T13:39:26.774Z,325
2023-02-09T13:40:26.750Z,320
2023-02-09T13:41:27.070Z,320
2023-02-09T13:42:26.668Z,320
2023-02-09T13:43:26.798Z,320
2023-02-09T13:44:26.627Z,315
2023-02-09T13:45:26.646Z,320
2023-02-09T13:46:27.080Z,320
2023-02-09T13:47:26.333Z,320
2023-02-09T13:48:26.098Z,310
2023-02-09T13:49:26.210Z,305
2023-02-09T13:50:26.189Z,305
2023-02-09T13:51:26.472Z,300
2023-02-09T13:52:26.164Z,300
2023-02-09T13:53:29.289Z,295
2023-02-09T13:54:26.350Z,295
2023-02-09T13:55:26.070Z,295
2023-02-09T13:56:26.315Z,300
2023-02-09T13:57:26.226Z,300
2023-02-09T13:58:26.389Z,300
2023-02-09T13:59:26.183Z,300
2023-02-09T14:00:26.156Z,300
2023-02-09T14:01:26.548Z,290
2023-02-09T14:02:25.995Z,295
2023-02-09T14:03:26.051Z,290
2023-02-09T14:04:26.032Z,290
2023-02-09T14:05:25.944Z,290
2023-02-09T14:06:25.934Z,295
2023-02-09T14:07:25.895Z,290
2023-02-09T14:08:25.896Z,300
2023-02-09T14:09:25.631Z,290
2023-02-09T14:10:25.812Z,290
2023-02-09T14:11:44.272Z,290
2023-02-09T14:12:25.739Z,290
2023-02-09T14:13:25.711Z,285
2023-02-09T14:14:25.440Z,285
2023-02-09T14:15:25.678Z,280